sensor_id;sensor_type;location;lat;lon;timestamp;pressure;altitude;pressure_sealevel;temperature;humidity
9676;BME280;4876;42.656;23.292;2022-11-20T00:00:07;93585.22;;;18.18;59.65
9676;BME280;4876;42.656;23.292;2022-11-20T00:02:34;93570.00;;;18.11;59.96
9676;BME280;4876;42.656;23.292;2022-11-20T00:05:00;93587.50;;;18.09;60.34
9676;BME280;4876;42.656;23.292;2022-11-20T00:07:27;93592.41;;;17.99;60.70
9676;BME280;4876;42.656;23.292;2022-11-20T00:09:54;93576.13;;;18.15;59.52
9676;BME280;4876;42.656;23.292;2022-11-20T00:12:22;93594.75;;;18.19;59.98
9676;BME280;4876;42.656;23.292;2022-11-20T00:14:49;93580.28;;;18.09;60.16
9676;BME280;4876;42.656;23.292;2022-11-20T00:17:15;93583.66;;;17.99;60.54
9676;BME280;4876;42.656;23.292;2022-11-20T00:19:42;93576.44;;;18.07;60.41
9676;BME280;4876;42.656;23.292;2022-11-20T00:22:09;93573.78;;;17.96;60.55
9676;BME280;4876;42.656;23.292;2022-11-20T00:24:36;93568.44;;;17.99;60.84
9676;BME280;4876;42.656;23.292;2022-11-20T00:27:03;93579.88;;;18.03;60.04
9676;BME280;4876;42.656;23.292;2022-11-20T00:29:31;93572.66;;;18.11;59.87
9676;BME280;4876;42.656;23.292;2022-11-20T00:31:57;93579.91;;;18.14;59.21
9676;BME280;4876;42.656;23.292;2022-11-20T00:34:24;93583.34;;;18.15;58.94
9676;BME280;4876;42.656;23.292;2022-11-20T00:36:51;93562.84;;;18.33;58.31
9676;BME280;4876;42.656;23.292;2022-11-20T00:39:18;93568.53;;;18.24;59.16
9676;BME280;4876;42.656;23.292;2022-11-20T00:41:44;93580.28;;;18.09;59.31
9676;BME280;4876;42.656;23.292;2022-11-20T00:44:11;93573.09;;;18.20;59.12
9676;BME280;4876;42.656;23.292;2022-11-20T00:46:39;93573.03;;;18.06;59.52
9676;BME280;4876;42.656;23.292;2022-11-20T00:49:06;93570.38;;;18.13;59.06
9676;BME280;4876;42.656;23.292;2022-11-20T00:51:33;93588.25;;;18.13;59.31
9676;BME280;4876;42.656;23.292;2022-11-20T00:53:59;93630.16;;;18.26;58.57
9676;BME280;4876;42.656;23.292;2022-11-20T00:56:27;93606.59;;;18.36;58.06
9676;BME280;4876;42.656;23.292;2022-11-20T00:58:54;93593.63;;;18.30;58.24
9676;BME280;4876;42.656;23.292;2022-11-20T01:01:22;93577.28;;;18.25;58.55
9676;BME280;4876;42.656;23.292;2022-11-20T01:03:53;93609.22;;;18.21;58.71
9676;BME280;4876;42.656;23.292;2022-11-20T01:06:22;93598.22;;;18.37;58.43
9676;BME280;4876;42.656;23.292;2022-11-20T01:08:51;93622.16;;;18.37;58.36
9676;BME280;4876;42.656;23.292;2022-11-20T01:11:20;93552.97;;;18.41;58.35
9676;BME280;4876;42.656;23.292;2022-11-20T01:13:48;93595.56;;;18.41;57.99
9676;BME280;4876;42.656;23.292;2022-11-20T01:16:17;93565.50;;;18.37;58.24
9676;BME280;4876;42.656;23.292;2022-11-20T01:18:46;93581.47;;;18.29;58.45
9676;BME280;4876;42.656;23.292;2022-11-20T01:21:17;93591.31;;;18.15;58.76
9676;BME280;4876;42.656;23.292;2022-11-20T01:23:45;93568.50;;;18.10;58.63
9676;BME280;4876;42.656;23.292;2022-11-20T01:26:14;93533.56;;;18.22;58.20
9676;BME280;4876;42.656;23.292;2022-11-20T01:28:42;93576.16;;;18.33;58.05
9676;BME280;4876;42.656;23.292;2022-11-20T01:31:13;93537.38;;;18.36;57.97
9676;BME280;4876;42.656;23.292;2022-11-20T01:33:42;93549.94;;;18.39;57.50
9676;BME280;4876;42.656;23.292;2022-11-20T01:36:10;93518.38;;;18.48;57.27
9676;BME280;4876;42.656;23.292;2022-11-20T01:38:38;93535.13;;;18.45;57.70
9676;BME280;4876;42.656;23.292;2022-11-20T01:41:06;93556.78;;;18.50;57.17
9676;BME280;4876;42.656;23.292;2022-11-20T01:43:34;93522.19;;;18.47;57.23
9676;BME280;4876;42.656;23.292;2022-11-20T01:46:05;93504.28;;;18.22;57.78
9676;BME280;4876;42.656;23.292;2022-11-20T01:48:36;93526.72;;;18.36;57.29
9676;BME280;4876;42.656;23.292;2022-11-20T01:51:06;93548.03;;;18.36;57.71
9676;BME280;4876;42.656;23.292;2022-11-20T01:53:38;93511.53;;;18.47;56.83
9676;BME280;4876;42.656;23.292;2022-11-20T01:56:08;93516.03;;;18.11;58.17
9676;BME280;4876;42.656;23.292;2022-11-20T01:58:38;93534.31;;;18.30;57.66
9676;BME280;4876;42.656;23.292;2022-11-20T02:01:07;93556.38;;;18.30;57.59
9676;BME280;4876;42.656;23.292;2022-11-20T02:03:34;93527.47;;;18.25;57.17
9676;BME280;4876;42.656;23.292;2022-11-20T02:06:07;93555.66;;;18.48;56.32
9676;BME280;4876;42.656;23.292;2022-11-20T02:08:38;93576.94;;;18.41;56.99
9676;BME280;4876;42.656;23.292;2022-11-20T02:11:05;93562.47;;;18.31;57.52
9676;BME280;4876;42.656;23.292;2022-11-20T02:13:33;93572.69;;;18.18;57.45
9676;BME280;4876;42.656;23.292;2022-11-20T02:16:21;93577.66;;;18.23;57.04
9676;BME280;4876;42.656;23.292;2022-11-20T02:18:50;93579.94;;;18.28;57.56
9676;BME280;4876;42.656;23.292;2022-11-20T02:21:27;93579.22;;;18.35;56.26
9676;BME280;4876;42.656;23.292;2022-11-20T02:24:07;93566.66;;;18.36;56.46
9676;BME280;4876;42.656;23.292;2022-11-20T02:26:40;93560.19;;;18.33;56.71
9676;BME280;4876;42.656;23.292;2022-11-20T02:29:07;93559.03;;;18.23;56.83
9676;BME280;4876;42.656;23.292;2022-11-20T02:31:36;93583.81;;;18.56;56.31
9676;BME280;4876;42.656;23.292;2022-11-20T02:34:04;93579.22;;;18.39;57.23
9676;BME280;4876;42.656;23.292;2022-11-20T02:36:32;93577.69;;;18.34;57.71
9676;BME280;4876;42.656;23.292;2022-11-20T02:39:00;93572.28;;;18.13;57.70
9676;BME280;4876;42.656;23.292;2022-11-20T02:41:34;93526.59;;;17.79;58.55
9676;BME280;4876;42.656;23.292;2022-11-20T02:44:02;93565.84;;;18.17;58.63
9676;BME280;4876;42.656;23.292;2022-11-20T02:46:29;93574.53;;;18.00;59.01
9676;BME280;4876;42.656;23.292;2022-11-20T02:48:56;93582.94;;;18.09;59.05
9676;BME280;4876;42.656;23.292;2022-11-20T02:51:23;93563.09;;;17.89;59.57
9676;BME280;4876;42.656;23.292;2022-11-20T02:53:50;93583.66;;;17.95;60.08
9676;BME280;4876;42.656;23.292;2022-11-20T02:56:17;93600.28;;;17.82;60.41
9676;BME280;4876;42.656;23.292;2022-11-20T02:59:04;93591.97;;;17.87;61.05
9676;BME280;4876;42.656;23.292;2022-11-20T03:01:30;93602.56;;;17.80;61.53
9676;BME280;4876;42.656;23.292;2022-11-20T03:03:57;93608.69;;;17.84;61.62
9676;BME280;4876;42.656;23.292;2022-11-20T03:06:24;93589.56;;;17.67;62.23
9676;BME280;4876;42.656;23.292;2022-11-20T03:08:51;93593.03;;;17.71;62.37
9676;BME280;4876;42.656;23.292;2022-11-20T03:11:17;93570.53;;;17.62;62.37
9676;BME280;4876;42.656;23.292;2022-11-20T03:13:44;93589.59;;;17.71;62.32
9676;BME280;4876;42.656;23.292;2022-11-20T03:16:14;93601.31;;;17.63;62.71
9676;BME280;4876;42.656;23.292;2022-11-20T03:18:41;93599.69;;;17.44;63.55
9676;BME280;4876;42.656;23.292;2022-11-20T03:21:09;93604.56;;;17.35;63.66
9676;BME280;4876;42.656;23.292;2022-11-20T03:23:36;93595.56;;;17.54;63.08
9676;BME280;4876;42.656;23.292;2022-11-20T03:26:08;93562.47;;;17.40;62.84
9676;BME280;4876;42.656;23.292;2022-11-20T03:28:35;93621.31;;;17.42;63.16
9676;BME280;4876;42.656;23.292;2022-11-20T03:31:06;93589.50;;;17.57;62.79
9676;BME280;4876;42.656;23.292;2022-11-20T03:33:34;93589.47;;;17.46;62.96
9676;BME280;4876;42.656;23.292;2022-11-20T03:36:02;93601.19;;;17.45;63.17
9676;BME280;4876;42.656;23.292;2022-11-20T03:38:29;93578.00;;;17.38;63.28
9676;BME280;4876;42.656;23.292;2022-11-20T03:40:59;93596.25;;;17.43;63.47
9676;BME280;4876;42.656;23.292;2022-11-20T03:43:26;93630.91;;;17.54;62.83
9676;BME280;4876;42.656;23.292;2022-11-20T03:45:53;93622.50;;;17.48;62.55
9676;BME280;4876;42.656;23.292;2022-11-20T03:48:20;93620.53;;;17.35;63.06
9676;BME280;4876;42.656;23.292;2022-11-20T03:50:48;93625.88;;;17.42;62.88
9676;BME280;4876;42.656;23.292;2022-11-20T03:53:15;93624.44;;;17.55;62.57
9676;BME280;4876;42.656;23.292;2022-11-20T03:55:42;93623.25;;;17.49;62.47
9676;BME280;4876;42.656;23.292;2022-11-20T03:58:09;93624.78;;;17.50;62.75
9676;BME280;4876;42.656;23.292;2022-11-20T04:00:36;93594.44;;;17.55;62.24
9676;BME280;4876;42.656;23.292;2022-11-20T04:03:03;93631.63;;;17.51;62.37
9676;BME280;4876;42.656;23.292;2022-11-20T04:05:30;93627.41;;;17.43;62.77
9676;BME280;4876;42.656;23.292;2022-11-20T04:08:00;93617.94;;;17.49;62.09
9676;BME280;4876;42.656;23.292;2022-11-20T04:10:27;93630.47;;;17.48;62.12
9676;BME280;4876;42.656;23.292;2022-11-20T04:12:54;93644.88;;;17.44;62.37
9676;BME280;4876;42.656;23.292;2022-11-20T04:15:20;93631.97;;;17.42;62.59
9676;BME280;4876;42.656;23.292;2022-11-20T04:17:47;93625.03;;;17.31;62.43
9676;BME280;4876;42.656;23.292;2022-11-20T04:20:14;93637.56;;;17.30;62.39
9676;BME280;4876;42.656;23.292;2022-11-20T04:22:41;93616.34;;;17.34;61.93
9676;BME280;4876;42.656;23.292;2022-11-20T04:25:09;93626.25;;;17.40;62.38
9676;BME280;4876;42.656;23.292;2022-11-20T04:27:36;93650.03;;;17.22;63.17
9676;BME280;4876;42.656;23.292;2022-11-20T04:30:03;93635.72;;;17.38;63.02
9676;BME280;4876;42.656;23.292;2022-11-20T04:32:30;93645.16;;;17.32;63.16
9676;BME280;4876;42.656;23.292;2022-11-20T04:34:57;93642.50;;;17.28;63.32
9676;BME280;4876;42.656;23.292;2022-11-20T04:37:24;93623.84;;;17.21;64.01
9676;BME280;4876;42.656;23.292;2022-11-20T04:39:51;93642.47;;;17.25;64.07
9676;BME280;4876;42.656;23.292;2022-11-20T04:42:19;93625.31;;;17.15;64.57
9676;BME280;4876;42.656;23.292;2022-11-20T04:44:55;93618.06;;;17.12;64.51
9676;BME280;4876;42.656;23.292;2022-11-20T04:47:22;93624.94;;;17.16;64.58
9676;BME280;4876;42.656;23.292;2022-11-20T04:49:48;93623.41;;;17.15;64.44
9676;BME280;4876;42.656;23.292;2022-11-20T04:52:15;93614.25;;;17.09;64.68
9676;BME280;4876;42.656;23.292;2022-11-20T04:54:42;93621.09;;;17.10;64.73
9676;BME280;4876;42.656;23.292;2022-11-20T04:57:09;93625.56;;;16.99;64.91
9676;BME280;4876;42.656;23.292;2022-11-20T04:59:37;93622.66;;;17.15;64.54
9676;BME280;4876;42.656;23.292;2022-11-20T05:02:03;93602.84;;;17.05;64.34
9676;BME280;4876;42.656;23.292;2022-11-20T05:04:30;93608.25;;;17.16;64.16
9676;BME280;4876;42.656;23.292;2022-11-20T05:06:57;93612.03;;;17.18;63.75
9676;BME280;4876;42.656;23.292;2022-11-20T05:09:24;93593.78;;;17.10;64.64
9676;BME280;4876;42.656;23.292;2022-11-20T05:11:50;93587.59;;;16.99;65.15
9676;BME280;4876;42.656;23.292;2022-11-20T05:14:17;93581.97;;;17.04;64.94
9676;BME280;4876;42.656;23.292;2022-11-20T05:16:45;93577.03;;;17.02;64.76
9676;BME280;4876;42.656;23.292;2022-11-20T05:19:12;93578.50;;;17.00;64.33
9676;BME280;4876;42.656;23.292;2022-11-20T05:21:39;93565.50;;;16.84;65.05
9676;BME280;4876;42.656;23.292;2022-11-20T05:24:06;93586.00;;;16.87;65.53
9676;BME280;4876;42.656;23.292;2022-11-20T05:26:33;93557.63;;;16.98;65.25
9676;BME280;4876;42.656;23.292;2022-11-20T05:28:59;93558.31;;;16.88;64.96
9676;BME280;4876;42.656;23.292;2022-11-20T05:31:26;93551.09;;;16.85;64.81
9676;BME280;4876;42.656;23.292;2022-11-20T05:33:55;93549.63;;;16.94;66.40
9676;BME280;4876;42.656;23.292;2022-11-20T05:36:23;93550.22;;;17.25;63.97
9676;BME280;4876;42.656;23.292;2022-11-20T05:38:50;93563.78;;;17.09;64.18
9676;BME280;4876;42.656;23.292;2022-11-20T05:41:18;93567.16;;;17.06;64.34
9676;BME280;4876;42.656;23.292;2022-11-20T05:43:47;93556.53;;;17.06;65.04
9676;BME280;4876;42.656;23.292;2022-11-20T05:46:16;93562.94;;;16.98;65.01
9676;BME280;4876;42.656;23.292;2022-11-20T05:48:44;93570.19;;;17.05;64.73
9676;BME280;4876;42.656;23.292;2022-11-20T05:51:15;93572.09;;;17.04;64.33
9676;BME280;4876;42.656;23.292;2022-11-20T05:53:43;93571.72;;;17.02;63.95
9676;BME280;4876;42.656;23.292;2022-11-20T05:56:11;93585.03;;;17.09;62.81
9676;BME280;4876;42.656;23.292;2022-11-20T05:58:39;93587.31;;;17.11;62.78
9676;BME280;4876;42.656;23.292;2022-11-20T06:01:07;93591.50;;;17.08;63.35
9676;BME280;4876;42.656;23.292;2022-11-20T06:03:35;93596.09;;;17.15;63.53
9676;BME280;4876;42.656;23.292;2022-11-20T06:06:04;93605.59;;;17.19;63.19
9676;BME280;4876;42.656;23.292;2022-11-20T06:08:32;93599.13;;;17.17;63.31
9676;BME280;4876;42.656;23.292;2022-11-20T06:11:03;93594.91;;;17.09;63.27
9676;BME280;4876;42.656;23.292;2022-11-20T06:13:30;93616.63;;;17.21;62.67
9676;BME280;4876;42.656;23.292;2022-11-20T06:15:56;93621.19;;;17.25;62.55
9676;BME280;4876;42.656;23.292;2022-11-20T06:18:26;93621.19;;;17.25;62.76
9676;BME280;4876;42.656;23.292;2022-11-20T06:20:59;93622.34;;;17.23;62.98
9676;BME280;4876;42.656;23.292;2022-11-20T06:23:28;93630.25;;;17.16;62.84
9676;BME280;4876;42.656;23.292;2022-11-20T06:25:56;93620.06;;;17.26;62.74
9676;BME280;4876;42.656;23.292;2022-11-20T06:28:23;93644.88;;;17.40;62.39
9676;BME280;4876;42.656;23.292;2022-11-20T06:30:49;93642.50;;;17.32;62.55
9676;BME280;4876;42.656;23.292;2022-11-20T06:33:16;93645.66;;;17.48;62.18
9676;BME280;4876;42.656;23.292;2022-11-20T06:35:43;93627.09;;;17.55;62.16
9676;BME280;4876;42.656;23.292;2022-11-20T06:38:10;93623.31;;;17.56;62.16
9676;BME280;4876;42.656;23.292;2022-11-20T06:40:39;93636.22;;;17.54;62.07
9676;BME280;4876;42.656;23.292;2022-11-20T06:43:09;93623.72;;;17.62;61.36
9676;BME280;4876;42.656;23.292;2022-11-20T06:45:36;93624.97;;;17.75;59.89
9676;BME280;4876;42.656;23.292;2022-11-20T06:48:04;93616.97;;;17.71;59.78
9676;BME280;4876;42.656;23.292;2022-11-20T06:50:30;93631.44;;;17.78;59.40
9676;BME280;4876;42.656;23.292;2022-11-20T06:53:00;93625.50;;;18.02;58.34
9676;BME280;4876;42.656;23.292;2022-11-20T06:55:27;93631.91;;;18.01;58.19
9676;BME280;4876;42.656;23.292;2022-11-20T06:57:54;93638.50;;;18.21;58.31
9676;BME280;4876;42.656;23.292;2022-11-20T07:00:22;93630.16;;;18.34;58.21
9676;BME280;4876;42.656;23.292;2022-11-20T07:02:49;93653.75;;;18.39;58.53
9676;BME280;4876;42.656;23.292;2022-11-20T07:05:16;93660.19;;;18.30;58.31
9676;BME280;4876;42.656;23.292;2022-11-20T07:07:42;93632.34;;;18.10;58.92
9676;BME280;4876;42.656;23.292;2022-11-20T07:10:10;93655.19;;;18.18;59.40
9676;BME280;4876;42.656;23.292;2022-11-20T07:12:36;93659.81;;;18.28;59.30
9676;BME280;4876;42.656;23.292;2022-11-20T07:15:04;93655.19;;;18.15;60.03
9676;BME280;4876;42.656;23.292;2022-11-20T07:17:32;93647.53;;;18.06;60.55
9676;BME280;4876;42.656;23.292;2022-11-20T07:19:59;93664.63;;;18.05;59.97
9676;BME280;4876;42.656;23.292;2022-11-20T07:22:26;93657.41;;;18.02;60.36
9676;BME280;4876;42.656;23.292;2022-11-20T07:24:53;93649.34;;;17.88;60.82
9676;BME280;4876;42.656;23.292;2022-11-20T07:27:20;93641.34;;;17.88;60.53
9676;BME280;4876;42.656;23.292;2022-11-20T07:29:47;93651.97;;;17.81;60.51
9676;BME280;4876;42.656;23.292;2022-11-20T07:32:13;93658.81;;;17.82;60.35
9676;BME280;4876;42.656;23.292;2022-11-20T07:34:42;93666.44;;;17.87;60.46
9676;BME280;4876;42.656;23.292;2022-11-20T07:37:08;93657.28;;;17.81;59.90
9676;BME280;4876;42.656;23.292;2022-11-20T07:39:35;93637.53;;;17.82;60.51
9676;BME280;4876;42.656;23.292;2022-11-20T07:42:02;93664.09;;;17.74;60.69
9676;BME280;4876;42.656;23.292;2022-11-20T07:44:29;93643.69;;;17.93;59.54
9676;BME280;4876;42.656;23.292;2022-11-20T07:46:55;93647.50;;;17.95;59.21
9676;BME280;4876;42.656;23.292;2022-11-20T07:49:22;93657.34;;;17.95;59.22
9676;BME280;4876;42.656;23.292;2022-11-20T07:51:51;93662.34;;;18.07;58.39
9676;BME280;4876;42.656;23.292;2022-11-20T07:54:19;93670.28;;;17.93;58.64
9676;BME280;4876;42.656;23.292;2022-11-20T07:56:46;93673.72;;;17.97;58.75
9676;BME280;4876;42.656;23.292;2022-11-20T07:59:14;93664.56;;;17.94;58.44
9676;BME280;4876;42.656;23.292;2022-11-20T08:01:40;93693.91;;;18.01;58.82
9676;BME280;4876;42.656;23.292;2022-11-20T08:04:07;93697.59;;;17.86;60.58
9676;BME280;4876;42.656;23.292;2022-11-20T08:06:34;93657.28;;;17.81;61.55
9676;BME280;4876;42.656;23.292;2022-11-20T08:09:03;93661.75;;;17.69;61.83
9676;BME280;4876;42.656;23.292;2022-11-20T08:11:30;93662.97;;;17.79;60.86
9676;BME280;4876;42.656;23.292;2022-11-20T08:14:14;93658.81;;;17.82;61.30
9676;BME280;4876;42.656;23.292;2022-11-20T08:16:42;93668.72;;;17.88;60.75
9676;BME280;4876;42.656;23.292;2022-11-20T08:19:09;93675.59;;;17.89;61.35
9676;BME280;4876;42.656;23.292;2022-11-20T08:21:36;93673.63;;;17.79;62.17
9676;BME280;4876;42.656;23.292;2022-11-20T08:24:05;93701.81;;;17.91;61.55
9676;BME280;4876;42.656;23.292;2022-11-20T08:26:32;93715.81;;;17.81;62.08
9676;BME280;4876;42.656;23.292;2022-11-20T08:28:59;93728.81;;;17.93;61.03
9676;BME280;4876;42.656;23.292;2022-11-20T08:31:27;93725.41;;;17.99;60.73
9676;BME280;4876;42.656;23.292;2022-11-20T08:33:54;93691.69;;;18.14;60.39
9676;BME280;4876;42.656;23.292;2022-11-20T08:36:22;93700.84;;;18.20;59.95
9676;BME280;4876;42.656;23.292;2022-11-20T08:38:49;93715.69;;;18.28;60.74
9676;BME280;4876;42.656;23.292;2022-11-20T08:41:17;93702.66;;;18.02;61.30
9676;BME280;4876;42.656;23.292;2022-11-20T08:43:54;93721.06;;;17.73;64.70
9676;BME280;4876;42.656;23.292;2022-11-20T08:46:22;93758.94;;;17.63;69.11
9676;BME280;4876;42.656;23.292;2022-11-20T08:48:49;93751.63;;;17.46;72.54
9676;BME280;4876;42.656;23.292;2022-11-20T08:51:16;93752.16;;;17.25;74.71
9676;BME280;4876;42.656;23.292;2022-11-20T08:53:43;93741.09;;;17.19;74.79
9676;BME280;4876;42.656;23.292;2022-11-20T08:56:10;93755.47;;;17.11;72.53
9676;BME280;4876;42.656;23.292;2022-11-20T08:58:39;93700.00;;;17.06;75.84
9676;BME280;4876;42.656;23.292;2022-11-20T09:01:06;93692.84;;;17.14;75.99
9676;BME280;4876;42.656;23.292;2022-11-20T09:03:33;93724.38;;;17.15;75.16
9676;BME280;4876;42.656;23.292;2022-11-20T09:06:01;93733.50;;;17.14;76.07
9676;BME280;4876;42.656;23.292;2022-11-20T09:08:28;93735.00;;;17.15;74.98
9676;BME280;4876;42.656;23.292;2022-11-20T09:10:56;93722.13;;;17.17;75.98
9676;BME280;4876;42.656;23.292;2022-11-20T09:13:24;93723.78;;;16.92;77.43
9676;BME280;4876;42.656;23.292;2022-11-20T09:15:56;93744.66;;;16.60;79.80
9676;BME280;4876;42.656;23.292;2022-11-20T09:18:23;93747.03;;;16.38;78.21
9676;BME280;4876;42.656;23.292;2022-11-20T09:20:50;93742.31;;;16.25;78.08
9676;BME280;4876;42.656;23.292;2022-11-20T09:23:17;93723.66;;;16.18;80.40
9676;BME280;4876;42.656;23.292;2022-11-20T09:25:44;93728.88;;;15.84;80.42
9676;BME280;4876;42.656;23.292;2022-11-20T09:28:11;93728.75;;;15.77;80.71
9676;BME280;4876;42.656;23.292;2022-11-20T09:30:38;93724.28;;;15.81;78.21
9676;BME280;4876;42.656;23.292;2022-11-20T09:33:06;93727.22;;;15.76;83.87
9676;BME280;4876;42.656;23.292;2022-11-20T09:35:35;93685.25;;;15.55;85.36
9676;BME280;4876;42.656;23.292;2022-11-20T09:38:05;93695.91;;;15.58;85.74
9676;BME280;4876;42.656;23.292;2022-11-20T09:40:34;93681.19;;;15.61;86.18
9676;BME280;4876;42.656;23.292;2022-11-20T09:43:04;93684.56;;;15.84;85.15
9676;BME280;4876;42.656;23.292;2022-11-20T09:45:47;93674.44;;;15.90;86.85
9676;BME280;4876;42.656;23.292;2022-11-20T09:48:40;93678.41;;;16.07;85.23
9676;BME280;4876;42.656;23.292;2022-11-20T09:51:16;93685.28;;;16.11;85.11
9676;BME280;4876;42.656;23.292;2022-11-20T09:53:59;93671.06;;;16.27;82.43
9676;BME280;4876;42.656;23.292;2022-11-20T09:56:28;93679.53;;;16.39;84.27
9676;BME280;4876;42.656;23.292;2022-11-20T09:58:59;93666.00;;;16.48;85.33
9676;BME280;4876;42.656;23.292;2022-11-20T10:01:31;93687.41;;;16.62;79.87
9676;BME280;4876;42.656;23.292;2022-11-20T10:04:02;93674.28;;;16.77;80.97
9676;BME280;4876;42.656;23.292;2022-11-20T10:06:31;93659.66;;;16.90;77.44
9676;BME280;4876;42.656;23.292;2022-11-20T10:09:06;93672.25;;;17.00;74.32
9676;BME280;4876;42.656;23.292;2022-11-20T10:11:46;93687.78;;;16.98;78.00
9676;BME280;4876;42.656;23.292;2022-11-20T10:14:23;93674.13;;;16.96;80.08
9676;BME280;4876;42.656;23.292;2022-11-20T10:16:58;93674.72;;;16.82;78.62
9676;BME280;4876;42.656;23.292;2022-11-20T10:19:49;93680.44;;;16.51;83.25
9676;BME280;4876;42.656;23.292;2022-11-20T10:22:37;93696.06;;;16.26;84.23
9676;BME280;4876;42.656;23.292;2022-11-20T10:25:13;93690.09;;;16.02;86.10
9676;BME280;4876;42.656;23.292;2022-11-20T10:28:00;93672.84;;;15.85;86.13
9676;BME280;4876;42.656;23.292;2022-11-20T10:30:36;93673.97;;;15.84;86.82
9676;BME280;4876;42.656;23.292;2022-11-20T10:33:06;93679.72;;;15.90;89.66
9676;BME280;4876;42.656;23.292;2022-11-20T10:35:43;93661.41;;;15.81;87.36
9676;BME280;4876;42.656;23.292;2022-11-20T10:38:18;93669.00;;;15.83;91.56
9676;BME280;4876;42.656;23.292;2022-11-20T10:40:51;93669.00;;;15.83;89.70
9676;BME280;4876;42.656;23.292;2022-11-20T10:43:39;93681.28;;;15.95;89.84
9676;BME280;4876;42.656;23.292;2022-11-20T10:46:14;93661.66;;;15.99;89.15
9676;BME280;4876;42.656;23.292;2022-11-20T10:48:45;93678.50;;;16.14;88.87
9676;BME280;4876;42.656;23.292;2022-11-20T10:51:23;93685.50;;;16.29;87.98
9676;BME280;4876;42.656;23.292;2022-11-20T10:54:03;93682.03;;;16.25;86.85
9676;BME280;4876;42.656;23.292;2022-11-20T10:56:38;93690.50;;;16.04;89.89
9676;BME280;4876;42.656;23.292;2022-11-20T11:02:18;93688.44;;;15.91;91.59
9676;BME280;4876;42.656;23.292;2022-11-20T11:04:46;93719.19;;;15.69;97.57
9676;BME280;4876;42.656;23.292;2022-11-20T11:07:19;93737.25;;;15.86;100.00
9676;BME280;4876;42.656;23.292;2022-11-20T11:09:48;93769.66;;;15.76;100.00
9676;BME280;4876;42.656;23.292;2022-11-20T11:12:16;93769.69;;;15.33;100.00
9676;BME280;4876;42.656;23.292;2022-11-20T11:14:47;93747.34;;;14.89;81.15
9676;BME280;4876;42.656;23.292;2022-11-20T11:17:24;93722.59;;;14.58;81.83
9676;BME280;4876;42.656;23.292;2022-11-20T11:20:00;93725.03;;;14.47;80.16
9676;BME280;4876;42.656;23.292;2022-11-20T11:22:30;93747.00;;;14.32;84.37
9676;BME280;4876;42.656;23.292;2022-11-20T11:24:57;93706.72;;;14.04;83.55
9676;BME280;4876;42.656;23.292;2022-11-20T11:27:25;93685.28;;;13.70;86.04
9676;BME280;4876;42.656;23.292;2022-11-20T11:30:12;93705.91;;;13.64;86.75
9676;BME280;4876;42.656;23.292;2022-11-20T11:32:40;93672.81;;;13.35;87.90
9676;BME280;4876;42.656;23.292;2022-11-20T11:35:20;93678.59;;;13.25;88.84
9676;BME280;4876;42.656;23.292;2022-11-20T11:37:50;93673.41;;;13.29;86.44
9676;BME280;4876;42.656;23.292;2022-11-20T11:40:21;93668.00;;;13.41;85.68
9676;BME280;4876;42.656;23.292;2022-11-20T11:42:53;93676.03;;;13.44;85.40
9676;BME280;4876;42.656;23.292;2022-11-20T11:45:21;93648.16;;;13.47;83.64
9676;BME280;4876;42.656;23.292;2022-11-20T11:47:48;93668.47;;;13.43;85.88
9676;BME280;4876;42.656;23.292;2022-11-20T11:50:20;93645.00;;;13.41;85.57
9676;BME280;4876;42.656;23.292;2022-11-20T11:52:59;93674.66;;;13.51;85.24
9676;BME280;4876;42.656;23.292;2022-11-20T11:55:31;93688.69;;;13.70;82.28
9676;BME280;4876;42.656;23.292;2022-11-20T11:58:09;93664.28;;;13.77;81.05
9676;BME280;4876;42.656;23.292;2022-11-20T12:00:40;93669.66;;;13.81;79.15
9676;BME280;4876;42.656;23.292;2022-11-20T12:03:15;93668.69;;;13.89;80.99
9676;BME280;4876;42.656;23.292;2022-11-20T12:05:49;93651.97;;;13.85;80.94
9676;BME280;4876;42.656;23.292;2022-11-20T12:08:24;93647.63;;;13.92;81.78
9676;BME280;4876;42.656;23.292;2022-11-20T12:10:58;93669.72;;;13.84;81.30
9676;BME280;4876;42.656;23.292;2022-11-20T12:13:44;93664.72;;;13.79;81.33
9676;BME280;4876;42.656;23.292;2022-11-20T12:16:14;93683.47;;;13.74;81.58
9676;BME280;4876;42.656;23.292;2022-11-20T12:18:42;93658.53;;;13.56;83.86
9676;BME280;4876;42.656;23.292;2022-11-20T12:21:20;93649.91;;;13.59;82.17
9676;BME280;4876;42.656;23.292;2022-11-20T12:23:58;93663.91;;;13.59;80.68
9676;BME280;4876;42.656;23.292;2022-11-20T12:26:40;93663.00;;;13.71;79.43
9676;BME280;4876;42.656;23.292;2022-11-20T12:29:15;93682.63;;;13.70;79.85
9676;BME280;4876;42.656;23.292;2022-11-20T12:31:55;93699.09;;;13.63;81.22
9676;BME280;4876;42.656;23.292;2022-11-20T12:34:37;93667.28;;;13.60;82.36
9676;BME280;4876;42.656;23.292;2022-11-20T12:37:13;93647.50;;;13.69;80.64
9676;BME280;4876;42.656;23.292;2022-11-20T12:39:48;93603.84;;;13.56;81.79
9676;BME280;4876;42.656;23.292;2022-11-20T12:42:26;93602.88;;;13.64;85.04
9676;BME280;4876;42.656;23.292;2022-11-20T12:45:56;93590.50;;;13.68;83.83
9676;BME280;4876;42.656;23.292;2022-11-20T12:48:42;93582.44;;;14.00;75.58
9676;BME280;4876;42.656;23.292;2022-11-20T12:54:48;93566.44;;;14.54;71.67
9676;BME280;4876;42.656;23.292;2022-11-20T12:57:21;93593.00;;;14.62;72.73
9676;BME280;4876;42.656;23.292;2022-11-20T13:00:10;93616.88;;;14.88;70.09
9676;BME280;4876;42.656;23.292;2022-11-20T13:02:56;93639.97;;;15.14;68.69
9676;BME280;4876;42.656;23.292;2022-11-20T13:05:31;93684.97;;;14.68;76.28
9676;BME280;4876;42.656;23.292;2022-11-20T13:08:02;93657.59;;;13.64;85.45
9676;BME280;4876;42.656;23.292;2022-11-20T13:10:37;93658.97;;;13.58;86.73
9676;BME280;4876;42.656;23.292;2022-11-20T13:13:14;93661.91;;;13.21;90.23
9676;BME280;4876;42.656;23.292;2022-11-20T13:15:49;93651.59;;;13.00;91.57
9676;BME280;4876;42.656;23.292;2022-11-20T13:18:18;93645.09;;;12.98;92.71
9676;BME280;4876;42.656;23.292;2022-11-20T13:20:46;93662.91;;;13.01;93.17
9676;BME280;4876;42.656;23.292;2022-11-20T13:23:23;93682.84;;;13.14;94.14
9676;BME280;4876;42.656;23.292;2022-11-20T13:26:03;93682.41;;;13.12;95.01
9676;BME280;4876;42.656;23.292;2022-11-20T13:28:30;93646.84;;;13.06;92.94
9676;BME280;4876;42.656;23.292;2022-11-20T13:30:58;93667.69;;;13.11;91.54